Time,TemperatureF,DewpointF,PressureIn,WindDirection,WindDirectionDegrees,WindSpeedMPH,WindSpeedGustMPH,Humidity,HourlyPrecipIn,Conditions,Clouds,dailyrainin,SoftwareType,DateUTC
2013-01-30 00:01:00,47.0,34.0,-100.00,NE,53,4.0,10.0,60,-99.99,,,-99.99,,2013-01-30 08:01:00,
2013-01-30 00:11:00,47.0,34.0,-100.00,NE,53,10.0,19.0,61,-99.99,,,-99.99,,2013-01-30 08:11:00,
2013-01-30 00:21:00,47.0,35.0,-100.00,ENE,67,14.0,22.0,63,-99.99,,,-99.99,,2013-01-30 08:21:00,
2013-01-30 00:32:00,46.0,35.0,-100.00,ENE,70,13.0,19.0,65,-99.99,,,-99.99,,2013-01-30 08:32:00,
2013-01-30 00:41:00,46.0,35.0,-100.00,ENE,66,11.0,16.0,65,-99.99,,,-99.99,,2013-01-30 08:41:00,
2013-01-30 00:52:00,45.0,35.0,-100.00,ENE,70,10.0,14.0,67,-99.99,,,-99.99,,2013-01-30 08:52:00,
2013-01-30 01:01:00,46.0,34.0,-100.00,East,79,7.0,11.0,63,-99.99,,,-99.99,,2013-01-30 09:01:00,
2013-01-30 01:11:00,46.0,35.0,-100.00,ENE,77,6.0,10.0,65,-99.99,,,-99.99,,2013-01-30 09:11:00,
2013-01-30 01:21:00,46.0,35.0,-100.00,East,83,6.0,11.0,64,-99.99,,,-99.99,,2013-01-30 09:21:00,
2013-01-30 01:31:00,47.0,34.0,-100.00,ENE,76,6.0,12.0,60,-99.99,,,-99.99,,2013-01-30 09:31:00,
2013-01-30 01:41:00,48.0,33.0,-100.00,East,81,8.0,18.0,55,-99.99,,,-99.99,,2013-01-30 09:41:00,
2013-01-30 01:51:00,50.0,32.0,-100.00,ENE,65,9.0,13.0,50,-99.99,,,-99.99,,2013-01-30 09:51:00,
2013-01-30 02:01:00,50.0,30.0,-100.00,ENE,58,13.0,20.0,46,-99.99,,,-99.99,,2013-01-30 10:01:00,
2013-01-30 02:11:00,50.0,30.0,-100.00,ENE,58,13.0,20.0,46,-99.99,,,-99.99,,2013-01-30 10:11:00,
2013-01-30 02:21:00,51.0,28.0,-100.00,NE,54,16.0,25.0,41,-99.99,,,-99.99,,2013-01-30 10:21:00,
2013-01-30 02:31:00,51.0,28.0,-100.00,NE,54,16.0,25.0,41,-99.99,,,-99.99,,2013-01-30 10:31:00,
2013-01-30 02:41:00,51.0,28.0,-100.00,NE,54,16.0,25.0,41,-99.99,,,-99.99,,2013-01-30 10:41:00,
2013-01-30 02:52:00,51.0,28.0,-100.00,ENE,74,10.0,17.0,41,-99.99,,,-99.99,,2013-01-30 10:52:00,
2013-01-30 03:02:00,50.0,28.0,-100.00,ENE,60,10.0,19.0,42,-99.99,,,-99.99,,2013-01-30 11:02:00,
2013-01-30 03:11:00,50.0,28.0,-100.00,NE,55,9.0,17.0,42,-99.99,,,-99.99,,2013-01-30 11:11:00,
2013-01-30 03:21:00,50.0,28.0,-100.00,ENE,57,7.0,12.0,42,-99.99,,,-99.99,,2013-01-30 11:21:00,
2013-01-30 03:32:00,50.0,28.0,-100.00,ENE,78,7.0,16.0,42,-99.99,,,-99.99,,2013-01-30 11:32:00,
2013-01-30 03:41:00,50.0,28.0,-100.00,ENE,78,6.0,14.0,43,-99.99,,,-99.99,,2013-01-30 11:41:00,
2013-01-30 03:52:00,50.0,27.0,-100.00,East,84,8.0,16.0,40,-99.99,,,-99.99,,2013-01-30 11:52:00,
2013-01-30 04:01:00,51.0,27.0,-100.00,ENE,66,9.0,16.0,39,-99.99,,,-99.99,,2013-01-30 12:01:00,
2013-01-30 04:12:00,50.0,27.0,-100.00,ENE,64,11.0,20.0,40,-99.99,,,-99.99,,2013-01-30 12:12:00,
2013-01-30 04:21:00,50.0,27.0,-100.00,ENE,61,12.0,19.0,40,-99.99,,,-99.99,,2013-01-30 12:21:00,
2013-01-30 04:32:00,50.0,27.0,-100.00,ENE,59,12.0,19.0,40,-99.99,,,-99.99,,2013-01-30 12:32:00,
2013-01-30 04:42:00,50.0,26.0,-100.00,NE,56,16.0,26.0,39,-99.99,,,-99.99,,2013-01-30 12:42:00,
2013-01-30 05:02:00,50.0,27.0,-100.00,NE,47,13.0,20.0,40,-99.99,,,-99.99,,2013-01-30 13:02:00,
2013-01-30 05:12:00,50.0,27.0,-100.00,NE,48,14.0,23.0,40,-99.99,,,-99.99,,2013-01-30 13:12:00,
2013-01-30 05:22:00,50.0,26.0,-100.00,NE,53,15.0,26.0,39,-99.99,,,-99.99,,2013-01-30 13:22:00,
2013-01-30 05:32:00,50.0,26.0,-100.00,ENE,59,13.0,22.0,39,-99.99,,,-99.99,,2013-01-30 13:32:00,
2013-01-30 05:42:00,50.0,26.0,-100.00,ENE,64,13.0,23.0,39,-99.99,,,-99.99,,2013-01-30 13:42:00,
2013-01-30 05:52:00,49.0,26.0,-100.00,ENE,72,11.0,21.0,41,-99.99,,,-99.99,,2013-01-30 13:52:00,
2013-01-30 06:01:00,49.0,26.0,-100.00,NE,49,12.0,21.0,41,-99.99,,,-99.99,,2013-01-30 14:01:00,
2013-01-30 06:11:00,49.0,27.0,-100.00,NE,49,11.0,20.0,42,-99.99,,,-99.99,,2013-01-30 14:11:00,
2013-01-30 06:22:00,49.0,27.0,-100.00,NE,55,13.0,21.0,42,-99.99,,,-99.99,,2013-01-30 14:22:00,
2013-01-30 06:32:00,48.0,27.0,-100.00,ENE,57,10.0,21.0,43,-99.99,,,-99.99,,2013-01-30 14:32:00,
2013-01-30 06:42:00,48.0,27.0,-100.00,NE,54,12.0,20.0,44,-99.99,,,-99.99,,2013-01-30 14:42:00,
2013-01-30 06:52:00,48.0,27.0,-100.00,NE,52,14.0,24.0,44,-99.99,,,-99.99,,2013-01-30 14:52:00,
2013-01-30 07:02:00,48.0,27.0,-100.00,NE,44,14.0,25.0,44,-99.99,,,-99.99,,2013-01-30 15:02:00,
2013-01-30 07:11:00,48.0,28.0,-100.00,NE,46,9.0,15.0,46,-99.99,,,-99.99,,2013-01-30 15:11:00,
2013-01-30 07:22:00,47.0,27.0,-100.00,NE,43,7.0,12.0,46,-99.99,,,-99.99,,2013-01-30 15:22:00,
2013-01-30 07:32:00,47.0,28.0,-100.00,NE,50,9.0,15.0,47,-99.99,,,-99.99,,2013-01-30 15:32:00,
2013-01-30 07:42:00,47.0,28.0,-100.00,NE,47,10.0,17.0,48,-99.99,,,-99.99,,2013-01-30 15:42:00,
2013-01-30 07:52:00,46.0,28.0,-100.00,NE,53,14.0,19.0,50,-99.99,,,-99.99,,2013-01-30 15:52:00,
2013-01-30 08:02:00,47.0,28.0,-100.00,ENE,62,11.0,17.0,48,-99.99,,,-99.99,,2013-01-30 16:02:00,
2013-01-30 08:12:00,48.0,29.0,-100.00,ENE,57,11.0,18.0,47,-99.99,,,-99.99,,2013-01-30 16:12:00,
2013-01-30 08:22:00,48.0,28.0,-100.00,NE,55,10.0,15.0,45,-99.99,,,-99.99,,2013-01-30 16:22:00,
2013-01-30 08:32:00,49.0,27.0,-100.00,NE,54,9.0,15.0,42,-99.99,,,-99.99,,2013-01-30 16:32:00,
2013-01-30 08:42:00,50.0,26.0,-100.00,ENE,59,10.0,17.0,39,-99.99,,,-99.99,,2013-01-30 16:42:00,
2013-01-30 08:51:00,51.0,26.0,-100.00,NE,55,11.0,18.0,37,-99.99,,,-99.99,,2013-01-30 16:51:00,
2013-01-30 09:01:00,51.0,26.0,-100.00,NE,55,11.0,18.0,37,-99.99,,,-99.99,,2013-01-30 17:01:00,
2013-01-30 09:12:00,52.0,25.0,-100.00,ENE,57,12.0,23.0,35,-99.99,,,-99.99,,2013-01-30 17:12:00,
2013-01-30 09:22:00,52.0,24.0,-100.00,ENE,60,12.0,20.0,33,-99.99,,,-99.99,,2013-01-30 17:22:00,
2013-01-30 09:31:00,52.0,23.0,-100.00,ENE,58,13.0,21.0,32,-99.99,,,-99.99,,2013-01-30 17:31:00,
2013-01-30 09:42:00,53.0,23.0,-100.00,ENE,62,14.0,22.0,31,-99.99,,,-99.99,,2013-01-30 17:42:00,
2013-01-30 09:52:00,53.0,23.0,-100.00,ENE,62,16.0,25.0,31,-99.99,,,-99.99,,2013-01-30 17:52:00,
2013-01-30 10:02:00,53.0,23.0,-100.00,ENE,67,14.0,24.0,31,-99.99,,,-99.99,,2013-01-30 18:02:00,
2013-01-30 10:12:00,53.0,23.0,-100.00,NE,56,13.0,22.0,31,-99.99,,,-99.99,,2013-01-30 18:12:00,
2013-01-30 10:22:00,53.0,23.0,-100.00,NE,51,16.0,26.0,31,-99.99,,,-99.99,,2013-01-30 18:22:00,
2013-01-30 10:32:00,53.0,23.0,-100.00,NE,47,18.0,26.0,31,-99.99,,,-99.99,,2013-01-30 18:32:00,
2013-01-30 10:42:00,53.0,24.0,-100.00,NE,53,17.0,24.0,32,-99.99,,,-99.99,,2013-01-30 18:42:00,
2013-01-30 10:51:00,53.0,24.0,-100.00,NE,48,17.0,25.0,32,-99.99,,,-99.99,,2013-01-30 18:51:00,
2013-01-30 11:02:00,54.0,25.0,-100.00,NE,46,15.0,23.0,32,-99.99,,,-99.99,,2013-01-30 19:02:00,
2013-01-30 11:11:00,54.0,24.0,-100.00,NE,47,17.0,23.0,31,-99.99,,,-99.99,,2013-01-30 19:11:00,
2013-01-30 11:21:00,54.0,25.0,-100.00,NE,50,17.0,24.0,32,-99.99,,,-99.99,,2013-01-30 19:21:00,
2013-01-30 11:32:00,55.0,26.0,-100.00,NE,55,15.0,24.0,32,-99.99,,,-99.99,,2013-01-30 19:32:00,
2013-01-30 11:42:00,54.0,24.0,-100.00,NE,47,18.0,25.0,31,-99.99,,,-99.99,,2013-01-30 19:42:00,
2013-01-30 11:52:00,54.0,24.0,-100.00,NE,50,19.0,28.0,31,-99.99,,,-99.99,,2013-01-30 19:52:00,
2013-01-30 12:02:00,55.0,25.0,-100.00,NE,52,18.0,27.0,31,-99.99,,,-99.99,,2013-01-30 20:02:00,
2013-01-30 12:11:00,55.0,25.0,-100.00,NE,55,18.0,27.0,31,-99.99,,,-99.99,,2013-01-30 20:11:00,
2013-01-30 12:21:00,55.0,25.0,-100.00,ENE,59,15.0,25.0,31,-99.99,,,-99.99,,2013-01-30 20:21:00,
2013-01-30 12:32:00,55.0,24.0,-100.00,ENE,67,15.0,24.0,30,-99.99,,,-99.99,,2013-01-30 20:32:00,
2013-01-30 12:42:00,55.0,24.0,-100.00,ENE,68,16.0,23.0,30,-99.99,,,-99.99,,2013-01-30 20:42:00,
2013-01-30 12:52:00,56.0,25.0,-100.00,ENE,63,14.0,25.0,30,-99.99,,,-99.99,,2013-01-30 20:52:00,
2013-01-30 13:02:00,56.0,25.0,-100.00,ENE,67,14.0,21.0,30,-99.99,,,-99.99,,2013-01-30 21:02:00,
2013-01-30 13:11:00,56.0,25.0,-100.00,ENE,66,15.0,22.0,30,-99.99,,,-99.99,,2013-01-30 21:11:00,
2013-01-30 13:22:00,56.0,25.0,-100.00,ENE,61,16.0,23.0,30,-99.99,,,-99.99,,2013-01-30 21:22:00,
2013-01-30 13:31:00,56.0,25.0,-100.00,ENE,63,14.0,24.0,30,-99.99,,,-99.99,,2013-01-30 21:31:00,
2013-01-30 13:42:00,57.0,25.0,-100.00,NE,56,14.0,21.0,29,-99.99,,,-99.99,,2013-01-30 21:42:00,
2013-01-30 13:52:00,57.0,25.0,-100.00,ENE,71,12.0,22.0,29,-99.99,,,-99.99,,2013-01-30 21:52:00,
2013-01-30 14:02:00,57.0,25.0,-100.00,ENE,75,13.0,20.0,29,-99.99,,,-99.99,,2013-01-30 22:02:00,
2013-01-30 14:11:00,56.0,24.0,-100.00,ENE,70,13.0,22.0,29,-99.99,,,-99.99,,2013-01-30 22:11:00,
2013-01-30 14:22:00,57.0,25.0,-100.00,ENE,68,12.0,18.0,29,-99.99,,,-99.99,,2013-01-30 22:22:00,
2013-01-30 14:32:00,57.0,25.0,-100.00,ENE,71,14.0,23.0,29,-99.99,,,-99.99,,2013-01-30 22:32:00,
2013-01-30 14:41:00,57.0,25.0,-100.00,ENE,73,13.0,21.0,29,-99.99,,,-99.99,,2013-01-30 22:41:00,
2013-01-30 14:52:00,57.0,25.0,-100.00,ENE,67,14.0,23.0,29,-99.99,,,-99.99,,2013-01-30 22:52:00,
2013-01-30 15:01:00,57.0,25.0,-100.00,ENE,64,12.0,21.0,29,-99.99,,,-99.99,,2013-01-30 23:01:00,
2013-01-30 15:11:00,57.0,25.0,-100.00,ENE,66,15.0,20.0,29,-99.99,,,-99.99,,2013-01-30 23:11:00,
2013-01-30 15:22:00,57.0,24.0,-100.00,ENE,77,12.0,19.0,28,-99.99,,,-99.99,,2013-01-30 23:22:00,
2013-01-30 15:32:00,58.0,25.0,-100.00,ENE,75,12.0,19.0,28,-99.99,,,-99.99,,2013-01-30 23:32:00,
2013-01-30 15:42:00,58.0,25.0,-100.00,ENE,66,10.0,18.0,28,-99.99,,,-99.99,,2013-01-30 23:42:00,
2013-01-30 15:52:00,58.0,24.0,-100.00,ENE,78,11.0,17.0,27,-99.99,,,-99.99,,2013-01-30 23:52:00,
2013-01-30 16:01:00,59.0,25.0,-100.00,ENE,67,10.0,17.0,27,-99.99,,,-99.99,,2013-01-31 00:01:00,
2013-01-30 16:11:00,59.0,25.0,-100.00,ENE,70,9.0,16.0,27,-99.99,,,-99.99,,2013-01-31 00:11:00,
2013-01-30 16:21:00,58.0,24.0,-100.00,ENE,74,11.0,19.0,27,-99.99,,,-99.99,,2013-01-31 00:21:00,
2013-01-30 16:31:00,58.0,24.0,-100.00,ENE,77,10.0,18.0,27,-99.99,,,-99.99,,2013-01-31 00:31:00,
2013-01-30 16:42:00,58.0,25.0,-100.00,East,83,9.0,15.0,28,-99.99,,,-99.99,,2013-01-31 00:42:00,
2013-01-30 16:52:00,58.0,25.0,-100.00,ENE,75,11.0,18.0,28,-99.99,,,-99.99,,2013-01-31 00:52:00,
2013-01-30 17:01:00,57.0,25.0,-100.00,ENE,64,11.0,17.0,29,-99.99,,,-99.99,,2013-01-31 01:01:00,
2013-01-30 17:11:00,56.0,24.0,-100.00,ENE,66,11.0,17.0,29,-99.99,,,-99.99,,2013-01-31 01:11:00,
2013-01-30 17:21:00,56.0,25.0,-100.00,ENE,64,10.0,16.0,30,-99.99,,,-99.99,,2013-01-31 01:21:00,
2013-01-30 17:31:00,55.0,25.0,-100.00,ENE,71,8.0,14.0,31,-99.99,,,-99.99,,2013-01-31 01:31:00,
2013-01-30 17:41:00,55.0,25.0,-100.00,ENE,71,8.0,14.0,31,-99.99,,,-99.99,,2013-01-31 01:41:00,
2013-01-30 17:52:00,53.0,25.0,-100.00,ENE,69,5.0,8.0,34,-99.99,,,-99.99,,2013-01-31 01:52:00,
2013-01-30 18:01:00,52.0,26.0,-100.00,ENE,76,6.0,9.0,36,-99.99,,,-99.99,,2013-01-31 02:01:00,
2013-01-30 18:11:00,51.0,26.0,-100.00,ENE,71,6.0,9.0,38,-99.99,,,-99.99,,2013-01-31 02:11:00,
2013-01-30 18:21:00,51.0,26.0,-100.00,ENE,60,6.0,10.0,38,-99.99,,,-99.99,,2013-01-31 02:21:00,
2013-01-30 18:32:00,50.0,25.0,-100.00,ENE,61,8.0,12.0,37,-99.99,,,-99.99,,2013-01-31 02:32:00,
2013-01-30 18:41:00,50.0,25.0,-100.00,ENE,61,8.0,12.0,37,-99.99,,,-99.99,,2013-01-31 02:41:00,
2013-01-30 18:52:00,50.0,25.0,-100.00,ENE,61,8.0,12.0,37,-99.99,,,-99.99,,2013-01-31 02:52:00,
2013-01-30 19:02:00,49.0,25.0,-100.00,ENE,58,6.0,9.0,39,-99.99,,,-99.99,,2013-01-31 03:02:00,
2013-01-30 19:11:00,49.0,25.0,-100.00,ENE,62,7.0,9.0,39,-99.99,,,-99.99,,2013-01-31 03:11:00,
2013-01-30 19:21:00,49.0,26.0,-100.00,NE,53,5.0,9.0,40,-99.99,,,-99.99,,2013-01-31 03:21:00,
2013-01-30 19:31:00,48.0,25.0,-100.00,ENE,57,6.0,9.0,40,-99.99,,,-99.99,,2013-01-31 03:31:00,
2013-01-30 19:41:00,48.0,25.0,-100.00,NE,49,4.0,7.0,40,-99.99,,,-99.99,,2013-01-31 03:41:00,
2013-01-30 19:51:00,48.0,25.0,-100.00,NE,50,1.0,5.0,41,-99.99,,,-99.99,,2013-01-31 03:51:00,
2013-01-30 20:02:00,48.0,26.0,-100.00,East,89,5.0,10.0,42,-99.99,,,-99.99,,2013-01-31 04:02:00,
2013-01-30 20:11:00,47.0,26.0,-100.00,ENE,78,3.0,6.0,43,-99.99,,,-99.99,,2013-01-31 04:11:00,
2013-01-30 20:22:00,48.0,27.0,-100.00,ENE,77,4.0,7.0,43,-99.99,,,-99.99,,2013-01-31 04:22:00,
2013-01-30 20:31:00,48.0,27.0,-100.00,ENE,76,4.0,9.0,44,-99.99,,,-99.99,,2013-01-31 04:31:00,
2013-01-30 20:41:00,47.0,27.0,-100.00,NNE,32,4.0,7.0,45,-99.99,,,-99.99,,2013-01-31 04:41:00,
2013-01-30 20:51:00,46.0,27.0,-100.00,NNE,18,6.0,8.0,47,-99.99,,,-99.99,,2013-01-31 04:51:00,
2013-01-30 21:03:00,45.0,27.0,-100.00,NNE,33,6.0,9.0,48,-99.99,,,-99.99,,2013-01-31 05:03:00,
2013-01-30 21:10:00,42.0,27.0,-100.00,NE,49,5.0,8.0,56,-99.99,,,-99.99,,2013-01-31 05:10:00,
2013-01-30 21:11:00,45.0,27.0,-100.00,NE,40,6.0,9.0,49,-99.99,,,-99.99,,2013-01-31 05:11:00,
2013-01-30 21:21:00,44.0,28.0,-100.00,NNE,25,5.0,8.0,52,-99.99,,,-99.99,,2013-01-31 05:21:00,
2013-01-30 21:31:00,44.0,28.0,-100.00,NNE,25,5.0,8.0,52,-99.99,,,-99.99,,2013-01-31 05:31:00,
2013-01-30 21:41:00,42.0,27.0,-100.00,NE,49,5.0,8.0,56,-99.99,,,-99.99,,2013-01-31 05:41:00,
2013-01-30 21:51:00,42.0,27.0,-100.00,NE,49,5.0,8.0,56,-99.99,,,-99.99,,2013-01-31 05:51:00,
2013-01-30 22:01:00,42.0,27.0,-100.00,NE,49,5.0,8.0,56,-99.99,,,-99.99,,2013-01-31 06:01:00,